This is the latest recevied weather packets stored in our database for station/object GW1542. If no packets are shown the sender has not sent any weather packets the latest 10 day(s).
| Time | Temp. | Humidity | Pressure | Rain* | Wind** | Luminosity | Snow |
|---|---|---|---|---|---|---|---|
| 1778246483 | 8.89° C | 57% | 1016.5 hPa | 0 mm | - | - | - |
| 1778244686 | 6.67° C | 67% | 1016.5 hPa | 0 mm | - | - | - |
| 1778243976 | 5° C | 72% | 1016.5 hPa | 0 mm | - | - | - |
| 1778243630 | 3.89° C | 74% | 1016.5 hPa | 0 mm | - | - | - |
| 1778242538 | 2.78° C | 80% | 1016.5 hPa | 0 mm | - | - | - |
| 1778240719 | 0.56° C | 96% | 1016.5 hPa | 0 mm | - | - | - |
| 1778240370 | 0° C | 98% | 1016.5 hPa | 0 mm | - | - | - |
| 1778239997 | 0° C | 98% | 1016.2 hPa | 0 mm | - | - | - |
| 1778239639 | -0.56° C | 98% | 1016.5 hPa | 0 mm | - | - | - |
| 1778238562 | -1.11° C | 98% | 1016.2 hPa | 0 mm | - | - | - |
| 1778238206 | -1.11° C | 98% | 1016.2 hPa | 0 mm | - | - | - |
| 1778236035 | -2.22° C | 98% | 1015.9 hPa | 0 mm | - | - | - |
| 1778234978 | -2.22° C | 98% | 1015.5 hPa | 0 mm | - | - | - |
| 1778228510 | -1.67° C | 95% | 1015.2 hPa | 0 mm | - | - | - |
| 1778226680 | -0.56° C | 93% | 1015.2 hPa | 0 mm | - | - | - |
| 1778225607 | -1.11° C | 90% | 1015.2 hPa | 0 mm | - | - | - |
| 1778223818 | 0° C | 88% | 1015.5 hPa | 0 mm | - | - | - |
| 1778223093 | 0° C | 88% | 1015.2 hPa | 0 mm | - | - | - |
| 1778221662 | 0.56° C | 88% | 1015.2 hPa | 0 mm | - | - | - |
| 1778216589 | 1.67° C | 82% | 1015.5 hPa | 0 mm | - | - | - |
| 1778215176 | 1.67° C | 84% | 1015.5 hPa | 0 mm | - | - | - |
| 1778214828 | 2.22° C | 82% | 1015.2 hPa | 0 mm | - | - | - |
| 1778214444 | 2.22° C | 82% | 1015.2 hPa | 0 mm | - | - | - |
| 1778212998 | 2.78° C | 78% | 1015.2 hPa | 0 mm | - | - | - |
| 1778211926 | 2.78° C | 76% | 1014.9 hPa | 1.27 mm | - | - | - |
* Rain since midnight (hover to see other rain measurements)
** Current wind speed in m/s (hover to see current wind gust speed)